createdAt,value
2022-12-19T00:00:26.475Z,49.20
2022-12-19T00:02:54.089Z,50.07
2022-12-19T00:05:22.283Z,51.43
2022-12-19T00:07:53.518Z,53.40
2022-12-19T00:10:23.176Z,53.50
2022-12-19T00:12:50.714Z,51.07
2022-12-19T00:15:18.318Z,47.20
2022-12-19T00:17:45.941Z,49.73
2022-12-19T00:20:16.610Z,49.23
2022-12-19T00:22:46.628Z,51.57
2022-12-19T00:25:14.259Z,51.53
2022-12-19T00:27:42.022Z,50.00
2022-12-19T00:30:13.079Z,51.83
2022-12-19T00:32:43.401Z,48.90
2022-12-19T00:35:10.991Z,52.17
2022-12-19T00:37:40.656Z,52.10
2022-12-19T00:40:17.321Z,55.27
2022-12-19T00:42:50.133Z,53.40
2022-12-19T00:45:21.657Z,54.17
2022-12-19T00:47:49.218Z,52.80
2022-12-19T00:50:16.895Z,50.13
2022-12-19T00:52:44.418Z,50.33
2022-12-19T00:55:18.427Z,52.87
2022-12-19T00:57:47.081Z,51.77
2022-12-19T01:00:17.376Z,50.13
2022-12-19T01:02:45.499Z,50.40
2022-12-19T01:05:13.173Z,50.80
2022-12-19T01:07:40.717Z,53.33
2022-12-19T01:10:08.753Z,50.27
2022-12-19T01:12:51.604Z,51.87
2022-12-19T01:15:23.570Z,54.07
2022-12-19T01:17:51.303Z,51.13
2022-12-19T01:20:25.308Z,50.90
2022-12-19T01:23:00.428Z,51.80
2022-12-19T01:25:28.419Z,54.73
2022-12-19T01:27:56.956Z,52.23
2022-12-19T01:30:24.887Z,54.17
2022-12-19T01:32:53.819Z,49.40
2022-12-19T01:35:22.645Z,53.80
2022-12-19T01:37:52.161Z,51.80
2022-12-19T01:40:24.314Z,51.50
2022-12-19T01:42:51.892Z,52.60
2022-12-19T01:45:35.431Z,58.40
2022-12-19T01:48:04.175Z,54.30
2022-12-19T01:51:01.412Z,53.50
2022-12-19T01:53:36.959Z,52.90
2022-12-19T01:56:14.200Z,49.70
2022-12-19T01:58:47.638Z,49.60
2022-12-19T02:01:17.410Z,52.20
2022-12-19T02:03:45.948Z,52.87
2022-12-19T02:06:16.615Z,51.63
2022-12-19T02:08:47.147Z,52.03
2022-12-19T02:11:14.796Z,52.40
2022-12-19T02:13:44.174Z,49.93
2022-12-19T02:16:26.048Z,53.60
2022-12-19T02:19:30.758Z,50.70
2022-12-19T02:22:16.120Z,49.53
2022-12-19T02:25:28.799Z,51.03
2022-12-19T02:28:06.363Z,51.07
2022-12-19T02:30:55.867Z,53.40
2022-12-19T02:33:47.527Z,53.00
2022-12-19T02:36:38.898Z,52.73
2022-12-19T02:39:17.696Z,54.23
2022-12-19T02:41:51.394Z,53.53
2022-12-19T02:44:33.039Z,53.87
2022-12-19T02:47:02.925Z,51.83
2022-12-19T02:49:33.174Z,52.27
2022-12-19T02:52:20.005Z,51.67
2022-12-19T02:54:53.609Z,47.90
2022-12-19T02:57:53.119Z,49.77
2022-12-19T03:00:25.936Z,54.63
2022-12-19T03:03:20.363Z,49.23
2022-12-19T03:05:54.035Z,50.63
2022-12-19T03:08:27.971Z,50.33
2022-12-19T03:11:03.321Z,51.40
2022-12-19T03:13:45.980Z,50.13
2022-12-19T03:16:14.424Z,54.87
2022-12-19T03:18:42.438Z,52.03
2022-12-19T03:21:15.588Z,51.47
2022-12-19T03:23:44.638Z,54.30
2022-12-19T03:26:21.860Z,53.73
2022-12-19T03:28:49.412Z,55.97
2022-12-19T03:31:20.684Z,53.10
2022-12-19T03:33:50.417Z,55.10
2022-12-19T03:36:22.852Z,52.47
2022-12-19T03:38:50.916Z,52.70
2022-12-19T03:41:41.254Z,50.00
2022-12-19T03:44:11.242Z,52.17
2022-12-19T03:46:43.710Z,55.40
2022-12-19T03:49:11.831Z,51.70
2022-12-19T03:51:59.117Z,52.43
2022-12-19T03:54:30.359Z,50.67
2022-12-19T03:57:06.532Z,53.00
2022-12-19T03:59:39.901Z,53.60
2022-12-19T04:02:08.697Z,52.80
2022-12-19T04:04:40.352Z,54.97
2022-12-19T04:07:08.779Z,56.03
2022-12-19T04:09:37.641Z,50.83
2022-12-19T04:12:34.211Z,53.20
2022-12-19T04:15:02.035Z,53.70
2022-12-19T04:17:45.556Z,56.63
2022-12-19T04:20:15.668Z,57.13
2022-12-19T04:22:52.162Z,56.27
2022-12-19T04:25:31.028Z,51.13
2022-12-19T04:28:03.960Z,55.80
2022-12-19T04:30:36.607Z,56.73
2022-12-19T04:33:05.964Z,57.97
2022-12-19T04:35:36.201Z,56.27
2022-12-19T04:38:04.203Z,56.40
2022-12-19T04:40:34.463Z,55.53
2022-12-19T04:43:07.514Z,52.63
2022-12-19T04:45:35.442Z,55.67
2022-12-19T04:48:04.570Z,56.50
2022-12-19T04:50:36.323Z,59.93
2022-12-19T04:53:06.447Z,59.73
2022-12-19T04:55:34.144Z,56.33
2022-12-19T04:58:01.706Z,56.63
2022-12-19T05:00:29.321Z,56.17
2022-12-19T05:02:57.041Z,54.43
2022-12-19T05:05:24.788Z,56.27
2022-12-19T05:07:54.915Z,56.73
2022-12-19T05:10:22.458Z,57.80
2022-12-19T05:12:50.155Z,55.67
2022-12-19T05:15:17.744Z,59.67
2022-12-19T05:17:45.322Z,56.60
2022-12-19T05:20:12.945Z,56.63
2022-12-19T05:22:40.523Z,56.73
2022-12-19T05:25:08.603Z,53.77
2022-12-19T05:27:36.178Z,55.67
2022-12-19T05:30:12.928Z,49.59
2022-12-19T05:32:42.846Z,55.57
2022-12-19T05:35:10.406Z,57.30
2022-12-19T05:37:38.035Z,60.20
2022-12-19T05:40:06.175Z,54.57
2022-12-19T05:42:33.808Z,58.73
2022-12-19T05:45:01.404Z,53.87
2022-12-19T05:47:29.027Z,53.20
2022-12-19T05:49:56.592Z,58.50
2022-12-19T05:52:24.654Z,59.37
2022-12-19T05:54:52.305Z,53.67
2022-12-19T05:57:29.187Z,57.67
2022-12-19T05:59:56.881Z,57.00
2022-12-19T06:02:25.042Z,56.80
2022-12-19T06:04:53.100Z,56.07
2022-12-19T06:07:21.280Z,53.57
2022-12-19T06:09:49.051Z,57.93
2022-12-19T06:12:16.767Z,57.73
2022-12-19T06:14:44.332Z,58.60
2022-12-19T06:17:11.919Z,58.83
2022-12-19T06:19:42.553Z,57.97
2022-12-19T06:22:10.175Z,54.43
2022-12-19T06:24:37.831Z,56.87
2022-12-19T06:27:05.512Z,59.73
2022-12-19T06:29:41.812Z,54.13
2022-12-19T06:32:26.723Z,54.30
2022-12-19T06:35:09.477Z,62.20
2022-12-19T06:37:39.468Z,60.57
2022-12-19T06:40:08.005Z,62.03
2022-12-19T06:42:35.573Z,59.97
2022-12-19T06:45:03.302Z,57.47
2022-12-19T06:47:33.179Z,59.33
2022-12-19T06:50:00.727Z,60.00
2022-12-19T06:52:31.088Z,61.53
2022-12-19T06:54:58.838Z,60.23
2022-12-19T06:57:26.400Z,57.87
2022-12-19T06:59:54.017Z,57.77
2022-12-19T07:02:31.003Z,59.17
2022-12-19T07:05:03.698Z,55.90
2022-12-19T07:07:34.327Z,57.80
2022-12-19T07:10:02.099Z,56.23
2022-12-19T07:12:29.695Z,57.07
2022-12-19T07:14:57.240Z,56.87
2022-12-19T07:17:25.624Z,57.97
2022-12-19T07:19:55.552Z,56.77
2022-12-19T07:22:27.732Z,54.27
2022-12-19T07:24:56.278Z,56.50
2022-12-19T07:27:35.271Z,59.23
2022-12-19T07:30:05.425Z,59.53
2022-12-19T07:32:33.613Z,55.40
2022-12-19T07:35:01.195Z,56.90
2022-12-19T07:37:29.232Z,55.97
2022-12-19T07:39:56.859Z,58.47
2022-12-19T07:42:27.042Z,58.40
2022-12-19T07:44:58.410Z,57.20
2022-12-19T07:47:30.385Z,54.20
2022-12-19T07:49:57.942Z,54.27
2022-12-19T07:52:26.083Z,55.57
2022-12-19T07:54:55.456Z,53.47
2022-12-19T07:57:23.062Z,56.77
2022-12-19T07:59:50.736Z,53.77
2022-12-19T08:02:18.939Z,61.07
2022-12-19T08:04:46.845Z,56.70
2022-12-19T08:07:14.408Z,52.60
2022-12-19T08:09:41.971Z,55.13
2022-12-19T08:12:10.333Z,53.37
2022-12-19T08:14:37.907Z,54.13
2022-12-19T08:17:21.604Z,55.47
2022-12-19T08:19:49.539Z,50.63
2022-12-19T08:22:17.148Z,52.13
2022-12-19T08:24:44.760Z,57.00
2022-12-19T08:27:12.423Z,55.00
2022-12-19T08:29:40.064Z,51.70
2022-12-19T08:32:08.897Z,54.07
2022-12-19T08:34:36.433Z,54.83
2022-12-19T08:37:04.339Z,51.03
2022-12-19T08:39:31.999Z,54.27
2022-12-19T08:41:59.638Z,52.13
2022-12-19T08:44:27.600Z,51.30
2022-12-19T08:46:55.271Z,50.70
2022-12-19T08:49:22.989Z,51.20
2022-12-19T08:51:50.679Z,55.53
2022-12-19T08:54:18.321Z,48.67
2022-12-19T08:56:46.292Z,53.37
2022-12-19T08:59:18.704Z,55.13
2022-12-19T09:02:00.158Z,51.07
2022-12-19T09:05:57.617Z,51.40
2022-12-19T09:07:17.711Z,50.23
2022-12-19T09:09:47.542Z,47.87
2022-12-19T09:12:19.170Z,50.90
2022-12-19T09:14:46.814Z,51.70
2022-12-19T09:17:14.570Z,51.17
2022-12-19T09:19:43.205Z,46.80
2022-12-19T09:22:16.473Z,47.87
2022-12-19T09:24:44.475Z,52.67
2022-12-19T09:27:12.138Z,50.60
2022-12-19T09:29:44.439Z,47.67
2022-12-19T09:35:23.438Z,49.67
2022-12-19T09:38:18.226Z,48.80
2022-12-19T09:41:03.433Z,51.27
2022-12-19T09:44:32.193Z,46.57
2022-12-19T09:47:44.406Z,46.10
2022-12-19T09:50:55.944Z,46.10
2022-12-19T09:58:24.756Z,47.80
2022-12-19T10:01:16.312Z,44.03
2022-12-19T10:07:51.313Z,47.20
2022-12-19T10:12:36.376Z,46.30
2022-12-19T10:14:30.999Z,49.43
2022-12-19T10:17:42.535Z,51.33
2022-12-19T10:20:43.675Z,48.37
2022-12-19T10:24:24.075Z,45.00
2022-12-19T10:27:29.754Z,48.13
2022-12-19T10:30:20.849Z,50.37
2022-12-19T10:33:12.177Z,46.80
2022-12-19T10:35:57.492Z,47.33
2022-12-19T10:38:45.041Z,46.80
2022-12-19T10:41:28.331Z,49.47
2022-12-19T10:44:05.767Z,48.50
2022-12-19T10:46:36.168Z,51.73
2022-12-19T10:49:25.096Z,49.57
2022-12-19T10:51:55.551Z,46.47
2022-12-19T10:54:33.091Z,49.03
2022-12-19T10:57:22.827Z,50.33
2022-12-19T10:59:56.158Z,49.77
2022-12-19T11:02:32.814Z,47.50
2022-12-19T11:05:01.225Z,54.87
2022-12-19T11:07:29.069Z,51.67
2022-12-19T11:10:20.558Z,50.00
2022-12-19T11:16:52.916Z,46.27
2022-12-19T11:21:14.515Z,44.40
2022-12-19T11:27:09.818Z,49.40
2022-12-19T11:29:55.166Z,47.57
2022-12-19T11:30:43.939Z,46.43
2022-12-19T11:30:44.124Z,49.37
2022-12-19T11:33:55.626Z,51.60
2022-12-19T11:36:39.260Z,49.33
2022-12-19T11:39:42.756Z,48.13
2022-12-19T11:42:42.454Z,50.17
2022-12-19T11:45:28.562Z,47.03
2022-12-19T11:47:56.808Z,47.40
2022-12-19T11:50:28.873Z,50.63
2022-12-19T11:53:28.580Z,50.57
2022-12-19T11:56:22.052Z,48.67
2022-12-19T11:58:56.839Z,49.47
2022-12-19T12:01:30.706Z,50.43
2022-12-19T12:05:08.725Z,47.10
2022-12-19T12:09:13.855Z,50.93
2022-12-19T12:14:57.162Z,48.53
2022-12-19T12:19:30.594Z,51.33
2022-12-19T12:29:17.062Z,48.23
2022-12-19T12:31:16.922Z,46.00
2022-12-19T12:31:27.306Z,48.93
2022-12-19T12:31:43.405Z,48.47
2022-12-19T12:31:52.738Z,50.43
2022-12-19T12:35:57.121Z,51.77
2022-12-19T12:37:47.834Z,50.83
2022-12-19T12:38:48.707Z,48.80
2022-12-19T12:41:42.521Z,50.57
2022-12-19T12:44:59.071Z,49.00
2022-12-19T12:47:52.413Z,49.30
2022-12-19T12:50:25.230Z,50.93
2022-12-19T12:53:02.323Z,48.73
2022-12-19T12:55:40.086Z,51.20
2022-12-19T12:58:48.622Z,51.17
2022-12-19T13:01:20.329Z,52.77
2022-12-19T13:04:15.563Z,49.27
2022-12-19T13:07:12.780Z,51.43
2022-12-19T13:13:28.632Z,49.90
2022-12-19T13:15:58.752Z,51.03
2022-12-19T13:19:29.896Z,49.43
2022-12-19T13:22:04.795Z,54.70
2022-12-19T13:24:44.430Z,49.13
2022-12-19T13:27:22.334Z,52.83
2022-12-19T13:30:15.034Z,50.93
2022-12-19T13:54:26.266Z,53.93
2022-12-19T13:56:58.692Z,52.77
2022-12-19T14:00:19.674Z,54.03
2022-12-19T14:02:56.397Z,53.23
2022-12-19T14:06:15.324Z,52.27
2022-12-19T14:08:29.289Z,56.03
2022-12-19T14:14:01.564Z,53.67
2022-12-19T14:15:41.000Z,54.13
2022-12-19T14:18:44.307Z,52.23
2022-12-19T14:22:04.371Z,55.80
2022-12-19T14:24:20.193Z,57.33
2022-12-19T14:28:21.478Z,52.43
2022-12-19T14:30:27.943Z,55.17
2022-12-19T14:33:40.225Z,55.17
2022-12-19T14:36:11.468Z,55.50
2022-12-19T14:39:23.843Z,56.07
2022-12-19T14:41:48.649Z,54.37
2022-12-19T14:52:35.214Z,56.70
2022-12-19T14:54:07.203Z,55.70
2022-12-19T14:54:24.626Z,53.03
2022-12-19T14:54:26.802Z,53.43
2022-12-19T14:59:35.166Z,56.33
2022-12-19T15:25:52.805Z,56.57
2022-12-19T15:28:23.225Z,57.23
2022-12-19T15:31:02.110Z,56.27
2022-12-19T15:33:29.798Z,57.00
2022-12-19T15:35:57.527Z,54.50
2022-12-19T15:38:25.181Z,54.80
2022-12-19T15:40:52.826Z,58.07
2022-12-19T15:44:02.093Z,54.73
2022-12-19T15:46:12.435Z,56.37
2022-12-19T15:48:45.062Z,60.70
2022-12-19T15:51:13.990Z,57.17
2022-12-19T15:53:41.936Z,60.67
2022-12-19T15:56:30.497Z,58.00
2022-12-19T15:59:00.524Z,59.43
2022-12-19T16:01:28.858Z,61.40
2022-12-19T16:03:58.586Z,62.57
2022-12-19T16:06:29.560Z,57.20
2022-12-19T16:08:57.924Z,61.13
2022-12-19T16:11:25.795Z,62.63
2022-12-19T16:13:56.572Z,60.60
2022-12-19T16:16:25.343Z,60.47
2022-12-19T16:18:53.016Z,59.17
2022-12-19T16:21:33.258Z,73.00
2022-12-19T16:24:01.961Z,62.77
2022-12-19T16:26:37.543Z,59.43
2022-12-19T16:29:06.619Z,69.33
2022-12-19T16:31:34.522Z,61.90
2022-12-19T16:34:02.465Z,64.73
2022-12-19T16:36:30.223Z,65.80
2022-12-19T16:38:57.890Z,63.10
2022-12-19T16:41:25.907Z,63.17
2022-12-19T16:43:53.526Z,63.13
2022-12-19T16:46:23.867Z,65.17
2022-12-19T16:48:51.635Z,66.20
2022-12-19T16:51:21.917Z,62.17
2022-12-19T16:53:51.596Z,61.13
2022-12-19T16:56:36.414Z,65.77
2022-12-19T16:59:12.627Z,66.60
2022-12-19T17:01:41.519Z,64.80
2022-12-19T17:04:13.530Z,67.13
2022-12-19T17:06:41.921Z,71.43
2022-12-19T17:09:15.860Z,72.73
2022-12-19T17:11:52.804Z,91.20
2022-12-19T17:14:27.035Z,84.50
2022-12-19T17:16:55.823Z,63.90
2022-12-19T17:19:35.681Z,66.03
2022-12-19T17:22:03.378Z,68.63
2022-12-19T17:24:31.006Z,61.80
2022-12-19T17:26:58.614Z,64.17
2022-12-19T17:29:26.338Z,60.50
2022-12-19T17:31:55.340Z,61.17
2022-12-19T17:34:31.419Z,63.40
2022-12-19T17:37:00.416Z,65.60
2022-12-19T17:39:33.059Z,65.17
2022-12-19T17:42:21.679Z,60.10
2022-12-19T17:44:49.675Z,63.53
2022-12-19T17:47:20.891Z,57.70
2022-12-19T17:49:48.774Z,63.37
2022-12-19T17:52:18.970Z,66.37
2022-12-19T17:54:46.670Z,60.90
2022-12-19T17:57:15.355Z,62.47
2022-12-19T17:59:43.430Z,62.53
2022-12-19T18:02:25.072Z,60.27
2022-12-19T18:04:58.259Z,59.93
2022-12-19T18:07:25.934Z,60.83
2022-12-19T18:09:53.518Z,62.90
2022-12-19T18:12:21.268Z,63.97
2022-12-19T18:14:48.905Z,64.70
2022-12-19T18:17:25.292Z,59.47
2022-12-19T18:19:53.070Z,62.03
2022-12-19T18:22:20.727Z,62.50
2022-12-19T18:24:48.415Z,60.07
2022-12-19T18:27:16.086Z,61.97
2022-12-19T18:29:44.144Z,59.33
2022-12-19T18:32:19.095Z,60.77
2022-12-19T18:34:46.767Z,62.90
2022-12-19T18:37:17.448Z,59.20
2022-12-19T18:39:45.100Z,59.50
2022-12-19T18:42:20.127Z,60.37
2022-12-19T18:44:47.839Z,60.03
2022-12-19T18:47:23.211Z,62.27
2022-12-19T18:49:55.199Z,65.83
2022-12-19T18:52:22.880Z,58.60
2022-12-19T18:54:51.737Z,58.00
2022-12-19T18:57:20.326Z,57.33
2022-12-19T18:59:50.040Z,57.17
2022-12-19T19:02:27.958Z,56.60
2022-12-19T19:04:56.080Z,58.33
2022-12-19T19:07:23.764Z,57.13
2022-12-19T19:09:54.130Z,60.47
2022-12-19T19:12:24.732Z,62.57
2022-12-19T19:14:52.680Z,67.53
2022-12-19T19:17:28.068Z,64.67
2022-12-19T19:19:55.783Z,61.13
2022-12-19T19:22:24.768Z,65.23
2022-12-19T19:24:55.262Z,59.20
2022-12-19T19:27:22.863Z,59.93
2022-12-19T19:29:51.695Z,58.83
2022-12-19T19:32:19.456Z,62.80
2022-12-19T19:34:47.332Z,65.37
2022-12-19T19:37:15.693Z,63.70
2022-12-19T19:39:44.933Z,69.53
2022-12-19T19:42:12.587Z,66.77
2022-12-19T19:44:40.221Z,72.00
2022-12-19T19:47:07.858Z,70.10
2022-12-19T19:49:35.555Z,70.67
2022-12-19T19:52:03.647Z,67.63
2022-12-19T19:54:32.184Z,70.83
2022-12-19T19:56:59.881Z,68.90
2022-12-19T19:59:31.245Z,68.67
2022-12-19T20:01:59.290Z,71.03
2022-12-19T20:04:28.261Z,70.93
2022-12-19T20:06:56.332Z,68.20
2022-12-19T20:09:23.988Z,67.37
2022-12-19T20:11:51.640Z,72.00
2022-12-19T20:14:19.299Z,67.30
2022-12-19T20:16:47.566Z,71.97
2022-12-19T20:19:18.163Z,71.10
2022-12-19T20:21:51.095Z,70.80
2022-12-19T20:24:18.823Z,73.63
2022-12-19T20:26:46.570Z,74.37
2022-12-19T20:29:14.343Z,65.00
2022-12-19T20:31:42.598Z,69.70
2022-12-19T20:34:10.738Z,70.57
2022-12-19T20:36:40.661Z,69.70
2022-12-19T20:39:09.361Z,72.90
2022-12-19T20:41:36.992Z,70.10
2022-12-19T20:44:04.741Z,66.40
2022-12-19T20:46:32.502Z,71.07
2022-12-19T20:49:00.193Z,65.13
2022-12-19T20:51:27.783Z,68.23
2022-12-19T20:53:57.919Z,68.47
2022-12-19T20:56:28.538Z,69.53
2022-12-19T20:58:56.942Z,68.77
2022-12-19T21:01:25.479Z,71.63
2022-12-19T21:03:53.558Z,67.40
2022-12-19T21:06:25.229Z,69.10
2022-12-19T21:08:55.011Z,67.23
2022-12-19T21:11:24.216Z,69.00
2022-12-19T21:13:52.336Z,67.27
2022-12-19T21:16:22.130Z,69.57
2022-12-19T21:18:52.827Z,61.53
2022-12-19T21:21:23.469Z,66.90
2022-12-19T21:23:51.823Z,64.43
2022-12-19T21:26:20.338Z,65.50
2022-12-19T21:28:48.066Z,64.50
2022-12-19T21:31:19.413Z,65.50
2022-12-19T21:33:53.713Z,65.17
2022-12-19T21:36:24.336Z,64.13
2022-12-19T21:38:54.869Z,60.93
2022-12-19T21:41:22.975Z,59.50
2022-12-19T21:43:54.127Z,62.67
2022-12-19T21:46:24.377Z,58.13
2022-12-19T21:48:54.247Z,56.93
2022-12-19T21:51:25.228Z,56.63
2022-12-19T21:53:55.345Z,59.53
2022-12-19T21:56:35.664Z,59.50
2022-12-19T21:59:09.835Z,57.57
2022-12-19T22:01:38.221Z,61.17
2022-12-19T22:04:12.602Z,60.70
2022-12-19T22:06:41.592Z,60.17
2022-12-19T22:09:13.691Z,54.97
2022-12-19T22:11:41.998Z,55.83
2022-12-19T22:14:12.497Z,52.17
2022-12-19T22:16:40.354Z,56.30
2022-12-19T22:19:08.428Z,53.80
2022-12-19T22:21:36.976Z,55.20
2022-12-19T22:24:04.929Z,57.03
2022-12-19T22:26:32.836Z,53.73
2022-12-19T22:29:00.468Z,53.60
2022-12-19T22:31:30.588Z,54.23
2022-12-19T22:34:06.829Z,55.33
2022-12-19T22:36:37.944Z,59.07
2022-12-19T22:39:08.150Z,59.00
2022-12-19T22:41:36.646Z,56.67
2022-12-19T22:44:05.268Z,58.00
2022-12-19T22:46:36.584Z,55.47
2022-12-19T22:49:07.170Z,61.07
2022-12-19T22:51:36.569Z,60.50
2022-12-19T22:54:05.960Z,59.57
2022-12-19T22:56:37.764Z,56.30
2022-12-19T22:59:08.408Z,56.17
2022-12-19T23:01:38.748Z,55.80
2022-12-19T23:04:08.855Z,54.73
2022-12-19T23:06:38.023Z,56.63
2022-12-19T23:09:08.084Z,54.90
2022-12-19T23:11:38.043Z,52.77
2022-12-19T23:14:08.389Z,55.50
2022-12-19T23:16:36.076Z,55.00
2022-12-19T23:19:05.026Z,51.10
2022-12-19T23:21:32.766Z,54.27
2022-12-19T23:24:00.743Z,53.43
2022-12-19T23:26:30.880Z,55.43
2022-12-19T23:29:06.010Z,59.23
2022-12-19T23:31:34.370Z,66.87
2022-12-19T23:34:02.211Z,58.53
2022-12-19T23:37:08.854Z,57.60
2022-12-19T23:39:19.628Z,54.33
2022-12-19T23:41:47.274Z,52.07
2022-12-19T23:44:15.426Z,50.53
2022-12-19T23:46:43.127Z,58.37
2022-12-19T23:49:10.701Z,52.63
2022-12-19T23:51:38.352Z,57.87
2022-12-19T23:54:06.121Z,58.97
2022-12-19T23:56:33.774Z,63.97
2022-12-19T23:59:02.050Z,60.77
